Flight Track Log - Related Links

Times and Time Zones

All times are in EDT time to prevent confusion due to time zone crossing. See the OPT498 flight status page for this flight to view local times or setup timezone preferences in your user account.

Time Position Orientation Groundspeed Altitude Reporting Facility
EDT Latitude Longitude Course Direction KTS MPH feet Rate Location/Type
Sat 02:31:29 PM 27.0817 -80.2231 227° Southwest 156 180 4,300  Level Miami Center
Sat 02:32:29 PM 27.0883 -80.2956 276° West 184 212 5,600 1,700 Climbing Miami Center
Sat 02:33:29 PM 27.1436 -80.3417 323° Northwest 213 245 7,700 2,150 Climbing Miami Center
Sat 02:34:29 PM 27.2100 -80.3575 348° North 245 282 9,900 2,450 Climbing Miami Center
Sat 02:35:29 PM 27.2931 -80.3789 347° North 272 313 12,600 2,300 Climbing Miami Center
Sat 02:36:29 PM 27.3678 -80.3997 346° North 279 321 14,500 1,850 Climbing Miami Center
Sat 02:37:29 PM 27.4489 -80.4164 350° North 285 328 16,300 1,700 Climbing Miami Center
Sat 02:38:29 PM 27.5256 -80.4303 351° North 301 346 17,900 1,650 Climbing Miami Center
Sat 02:39:29 PM 27.6086 -80.4494 348° North 301 346 19,600 1,650 Climbing Miami Center
Sat 02:40:29 PM 27.6944 -80.4450 North 307 353 21,200 1,250 Climbing Miami Center
Sat 02:41:29 PM 27.7792 -80.3892 30° Northeast 316 364 22,100 1,000 Climbing Miami Center
Sat 02:42:29 PM 27.8747 -80.3264 30° Northeast 361 415 23,200 1,100 Climbing Miami Center
Sat 02:43:29 PM 27.9703 -80.2633 30° Northeast 389 448 24,300 1,200 Climbing Miami Center
Sat 02:44:29 PM 28.0700 -80.1864 34° Northeast 394 453 25,600 1,200 Climbing Miami Center
Sat 02:45:29 PM 28.1636 -80.1161 33° Northeast 404 465 26,700 1,100 Climbing Miami Center
Sat 02:46:29 PM 28.2569 -80.0433 34° Northeast 404 465 27,800 1,100 Climbing Miami Center
Sat 02:47:29 PM 28.3439 -79.9822 32° Northeast 404 465 28,900 1,050 Climbing Miami Center
Sat 02:48:29 PM 28.4458 -79.9022 35° Northeast 404 465 29,900 850 Climbing Miami Center
Sat 02:49:29 PM 28.5456 -79.8269 34° Northeast 409 471 30,600 700 Climbing Miami Center
Sat 02:50:29 PM 28.6450 -79.7517 34° Northeast 415 478 31,300 650 Climbing Miami Center
Sat 02:51:29 PM 28.7486 -79.6811 31° Northeast 426 490 31,900 600 Climbing Miami Center
Sat 02:52:29 PM 28.8622 -79.6389 18° North 421 484 32,500 650 Climbing Miami Center
Sat 02:53:29 PM 28.9758 -79.5919 20° North 421 484 33,200 650 Climbing Miami Center
Sat 02:54:29 PM 29.0892 -79.5472 19° North 427 491 33,800 650 Climbing Miami Center
Sat 02:55:29 PM 29.2047 -79.5167 13° North 427 491 34,500 650 Climbing Miami Center
Sat 02:56:29 PM 29.3217 -79.4981 North 420 483 35,100 650 Climbing Miami Center
Sat 02:57:29 PM 29.4369 -79.4747 10° North 415 478 35,800 650 Climbing Miami Center
Sat 02:58:29 PM 29.5500 -79.4489 11° North 415 478 36,400 650 Climbing Miami Center
Sat 02:59:29 PM 29.6692 -79.4300 North 415 478 37,100 650 Climbing Miami Center
Sat 03:00:29 PM 29.7658 -79.3967 17° North 410 472 37,700 600 Climbing Miami Center
Sat 03:01:29 PM 29.8728 -79.3514 20° North 403 464 38,300 650 Climbing Miami Center
Sat 03:02:29 PM 29.9950 -79.2894 24° Northeast 409 471 39,000 571 Climbing Miami Center
Sat 03:04:59 PM 30.2397 -79.1131 32° Northeast 412 474 40,300 488 Climbing Jacksonville Center
Sat 03:05:58 PM 30.3531 -79.0653 20° North 412 474 40,700 353 Climbing Jacksonville Center
Sat 03:06:58 PM 30.4603 -79.0225 19° North 402 463 41,000 149 Climbing Jacksonville Center
Sat 03:07:59 PM 30.5653 -78.9725 22° Northeast 412 474 41,000  Level Jacksonville Center
Sat 03:08:58 PM 30.6767 -78.9267 19° North 411 473 41,000  Level Jacksonville Center
Sat 03:09:59 PM 30.7900 -78.8786 20° North 411 473 41,000  Level Jacksonville Center
Sat 03:10:59 PM 30.8969 -78.8328 20° North 410 472 41,000  Level Jacksonville Center
Sat 03:11:59 PM 31.0039 -78.7847 21° North 411 473 41,000  Level Jacksonville Center
Sat 03:12:59 PM 31.1069 -78.7414 20° North 406 467 41,000  Level Jacksonville Center
Sat 03:13:58 PM 31.2119 -78.7003 19° North 406 467 41,000  Level Jacksonville Center
Sat 03:14:59 PM 31.3189 -78.6492 22° Northeast 406 467 41,000  Level Jacksonville Center
Sat 03:15:59 PM 31.4261 -78.6056 19° North 401 461 41,000  Level Jacksonville Center
Sat 03:16:59 PM 31.5308 -78.5592 21° North 401 461 41,000  Level Jacksonville Center
Sat 03:17:58 PM 31.6378 -78.5103 21° North 401 461 41,000  Level Jacksonville Center
Sat 03:18:59 PM 31.7569 -78.4583 20° North 410 472 41,000  Level Jacksonville Center
Sat 03:19:59 PM 31.8597 -78.4142 20° North 405 466 41,000  Level Jacksonville Center
Sat 03:20:59 PM 31.9569 -78.3236 38° Northeast 416 479 41,000  Level Jacksonville Center
Sat 03:21:58 PM 32.0472 -78.2261 42° Northeast 424 488 41,000  Level Jacksonville Center
Sat 03:22:59 PM 32.1256 -78.1461 41° Northeast 424 488 41,000  Level Jacksonville Center
Sat 03:23:59 PM 32.2203 -78.0553 39° Northeast 424 488 41,000  Level Jacksonville Center
Sat 03:24:59 PM 32.3253 -78.0153 18° North 396 456 41,000  Level Jacksonville Center
Sat 03:25:59 PM 32.4297 -77.9678 21° North 396 456 41,000  Level Jacksonville Center
Sat 03:26:58 PM 32.5367 -77.9250 19° North 401 461 41,000  Level Jacksonville Center
Sat 03:27:58 PM 32.6453 -77.8772 20° North 401 461 41,000  Level Jacksonville Center
Sat 03:28:59 PM 32.7522 -77.8367 18° North 401 461 41,000  Level Jacksonville Center
Sat 03:29:59 PM 32.8611 -77.7911 19° North 401 461 41,000  Level Jacksonville Center
Sat 03:32:10 PM 33.0919 -77.6933 20° North 409 471 41,000  Level Washington Center
Sat 03:33:11 PM 33.1992 -77.6481 19° North 409 471 41,000  Level Washington Center
Sat 03:34:15 PM 33.3278 -77.5944 19° North 409 471 41,000  Level Washington Center
Sat 03:35:15 PM 33.4350 -77.5486 20° North 409 471 41,000  Level Washington Center
Sat 03:36:19 PM 33.5414 -77.5033 20° North 409 471 41,000  Level Washington Center
Sat 03:37:20 PM 33.6481 -77.4583 19° North 409 471 41,000  Level Washington Center
Sat 03:38:23 PM 33.7547 -77.4119 20° North 409 471 41,000 -48 Level Washington Center
Sat 03:39:24 PM 33.8831 -77.3558 20° North 409 471 40,900 -290 Descending Washington Center
Sat 03:40:27 PM 33.9875 -77.3014 23° Northeast 410 472 40,400 -532 Descending Washington Center
Sat 03:41:28 PM 34.0914 -77.2450 24° Northeast 410 472 39,800 -677 Descending Washington Center
Sat 03:42:31 PM 34.1956 -77.1900 24° Northeast 410 472 39,000 -857 Descending Washington Center
Sat 03:43:34 PM 34.2992 -77.1325 25° Northeast 410 472 38,000 -968 Descending Washington Center
Sat 03:44:35 PM 34.4236 -77.0806 19° North 399 459 37,000 -492 Descending Washington Center
Sat 03:45:36 PM 34.5261 -77.0378 19° North 394 453 37,000  Level Washington Center
Sat 03:46:38 PM 34.6267 -76.9956 19° North 388 447 37,000 -288 Level Washington Center
Sat 03:47:41 PM 34.7272 -76.9517 20° North 387 445 36,400 -661 Descending Washington Center
Sat 03:48:45 PM 34.8275 -76.9083 20° North 385 443 35,600 -1,008 Descending Washington Center
Sat 03:49:46 PM 34.9272 -76.8658 19° North 382 440 34,300 -1,289 Descending Washington Center
Sat 03:50:46 PM 35.0464 -76.8142 20° North 381 438 33,000 -624 Descending Washington Center
Sat 03:51:51 PM 35.1453 -76.7731 19° North 382 440 33,000  Level Washington Center
Sat 03:52:51 PM 35.2489 -76.7269 20° North 394 453 33,000  Level Washington Center
Sat 03:53:53 PM 35.3525 -76.6828 19° North 394 453 33,000  Level Washington Center
Sat 03:54:56 PM 35.4600 -76.6356 20° North 390 449 33,000  Level Washington Center
Sat 03:55:58 PM 35.5633 -76.5908 19° North 391 450 33,000  Level Washington Center
Sat 03:57:01 PM 35.6864 -76.5369 20° North 391 450 33,000  Level Washington Center
Sat 03:58:02 PM 35.7889 -76.4925 19° North 391 450 33,000  Level Washington Center
Sat 03:59:05 PM 35.8900 -76.4469 20° North 390 449 33,000  Level Washington Center
Sat 04:00:05 PM 35.9919 -76.4022 20° North 390 449 33,000  Level Washington Center
Sat 04:01:09 PM 36.0950 -76.3581 19° North 390 449 33,000  Level Washington Center
Sat 04:02:09 PM 36.1967 -76.3128 20° North 390 449 33,000  Level Washington Center
Sat 04:03:14 PM 36.3189 -76.2583 20° North 390 449 33,000 -143 Level Washington Center
Sat 04:04:15 PM 36.4200 -76.2114 20° North 390 449 32,700 -726 Descending Washington Center
Sat 04:05:18 PM 36.5197 -76.1675 19° North 385 443 31,500 -1,056 Descending Washington Center
Sat 04:06:20 PM 36.6197 -76.1236 19° North 383 441 30,500 -836 Descending Washington Center
Sat 04:07:20 PM 36.7383 -76.0694 20° North 388 447 29,800 -677 Descending Washington Center
Sat 04:08:24 PM 36.8411 -76.0244 19° North 392 451 29,100 -381 Descending Washington Center
Sat 04:09:26 PM 36.9469 -75.9756 20° North 400 460 29,000 -49 Descending Washington Center
Sat 04:10:26 PM 37.0481 -75.9286 20° North 408 470 29,000  Level Washington Center
Sat 04:11:31 PM 37.1539 -75.8803 20° North 406 467 29,000  Level Washington Center
Sat 04:12:31 PM 37.2778 -75.8239 20° North 399 459 29,000  Level Washington Center
Sat 04:13:35 PM 37.3792 -75.7772 20° North 393 452 29,000  Level Washington Center
Sat 04:14:36 PM 37.4803 -75.7303 20° North 390 449 29,000  Level Washington Center
Sat 04:15:37 PM 37.5814 -75.6844 20° North 387 445 29,000 -384 Level Washington Center
Sat 04:16:41 PM 37.6819 -75.6381 20° North 387 445 28,200 -919 Descending Washington Center
Sat 04:17:41 PM 37.8075 -75.5806 20° North 395 455 27,100 -683 Descending Washington Center
Sat 04:18:44 PM 37.9147 -75.5306 20° North 406 467 26,800 -919 Descending Washington Center
Sat 04:19:45 PM 38.0214 -75.4814 20° North 410 472 25,200 -1,536 Descending Washington Center
Sat 04:20:49 PM 38.1253 -75.4225 24° Northeast 408 470 23,600 -1,104 Descending Washington Center
Sat 04:21:50 PM 38.2286 -75.3575 26° Northeast 410 472 22,900 -1,392 Descending Washington Center
Sat 04:22:54 PM 38.3411 -75.2847 27° Northeast 405 466 20,700 -2,064 Descending Washington Center
Sat 04:23:55 PM 38.4358 -75.2197 28° Northeast 392 451 18,600 -1,935 Descending Washington Center
Sat 04:24:58 PM 38.5267 -75.1647 25° Northeast 367 422 16,700 -1,694 Descending Washington Center
Sat 04:25:59 PM 38.6147 -75.1108 26° Northeast 356 410 15,100 -829 Descending Washington Center
Sat 04:27:01 PM 38.7033 -75.0828 14° North 324 373 15,000 -48 Descending Washington Center
Sat 04:28:04 PM 38.8200 -75.0681 North 346 398 15,000 -48 Level Washington Center
Sat 04:29:05 PM 38.9144 -75.0531 North 343 395 14,900 -48 Descending Washington Center
Sat 04:30:09 PM 39.0092 -75.0411 North 343 395 14,900  Level Washington Center
Sat 04:31:09 PM 39.1022 -75.0275 North 341 392 14,900  Level Washington Center
Sat 04:32:11 PM 39.1964 -75.0142 North 341 392 14,900  Level Washington Center
Sat 04:33:14 PM 39.3067 -75.0000 North 333 383 14,900 -829 Level Washington Center
Sat 04:34:14 PM 39.3944 -74.9872 North 315 362 13,200 -1,645 Descending Washington Center
Sat 04:35:18 PM 39.4700 -74.9764 North 276 318 11,500 -1,536 Descending Washington Center
Sat 04:36:19 PM 39.5422 -74.9664 North 264 304 10,000 -726 Descending Washington Center
Sat 04:37:22 PM 39.6139 -74.9356 18° North 272 313 10,000 -581 Level Washington Center
Sat 04:38:23 PM 39.6956 -74.8983 19° North 272 313 8,800 -1,355 Descending Washington Center
Sat 04:39:26 PM 39.7750 -74.8739 13° North 272 313 7,200 -864 Descending Washington Center
Sat 04:40:28 PM 39.8481 -74.8644 North 269 310 7,000 -381 Descending Washington Center
Sat 04:41:32 PM 39.9125 -74.8569 North 258 297 6,400 -871 Descending Washington Center
Sat 04:42:32 PM 40.0017 -74.8456 North 271 312 5,200 -1,171 Descending Washington Center
Sat 04:43:35 PM 40.0656 -74.8392 North 235 270 4,000 -1,113 Descending Washington Center
Sat 04:44:36 PM 40.1317 -74.8322 North 236 272 2,900 -857 Descending Washington Center
Sat 04:45:34 PM 40.2000 -74.8000 20° North 221 254 2,300 -610 Descending Philadelphia TRACON
Sat 04:46:34 PM 40.2500 -74.7667 27° Northeast 233 268 1,700 -579 Descending Philadelphia TRACON
Sat 04:47:28 PM 40.2833 -74.7500 21° North 143 165 1,200 -579 Descending Philadelphia TRACON
Sat 04:48:28 PM 40.3000 -74.7833 303° West 102 117 600 -600 Descending Philadelphia TRACON

Login

Don't have an account? Register now (free) for customized features, flight alerts, and more!